Time;durP1;ratioP1;P1;durP2;ratioP2;P2;SDS_P1;SDS_P2;PMS_P1;PMS_P2;Temp;Humidity;BMP_temperature;BMP_pressure;BME280_temperature;BME280_humidity;BME280_pressure;Samples;Min_cycle;Max_cycle;Signal;HPM_P1;HPM_P2
2023/10/30 00:01:16;;;;;;;0.73;0.40;;;;;;;12.87;100.00;99235.25;5040994;28;20193;-76
2023/10/30 00:03:41;;;;;;;1.40;0.40;;;;;;;12.87;100.00;99224.84;5042315;28;20183;-78
2023/10/30 00:06:07;;;;;;;1.70;0.40;;;;;;;12.88;100.00;99247.34;5043450;28;20905;-77
2023/10/30 00:08:32;;;;;;;1.00;0.30;;;;;;;12.89;100.00;99268.03;5042020;28;20221;-77
2023/10/30 00:10:57;;;;;;;0.60;0.30;;;;;;;12.91;100.00;99265.41;5041125;28;20231;-77
2023/10/30 00:13:22;;;;;;;1.00;0.40;;;;;;;12.92;100.00;99272.28;5044374;28;20184;-76
2023/10/30 00:15:48;;;;;;;0.50;0.40;;;;;;;12.94;100.00;99273.06;5048182;28;20242;-77
2023/10/30 00:18:13;;;;;;;0.30;0.30;;;;;;;12.95;100.00;99274.75;5043887;28;20179;-77
2023/10/30 00:20:39;;;;;;;0.77;0.40;;;;;;;12.94;100.00;99280.84;5061025;28;20202;-76
2023/10/30 00:23:04;;;;;;;0.40;0.30;;;;;;;12.94;100.00;99286.91;5059346;28;20216;-76
2023/10/30 00:25:30;;;;;;;0.60;0.53;;;;;;;12.95;100.00;99288.59;5042192;28;20232;-77
2023/10/30 00:27:59;;;;;;;1.00;0.40;;;;;;;12.95;100.00;99293.81;5042226;28;20997;-77
2023/10/30 00:30:25;;;;;;;0.50;0.27;;;;;;;12.96;100.00;99297.22;5035627;28;20248;-76
2023/10/30 00:32:50;;;;;;;0.60;0.30;;;;;;;12.95;100.00;99305.94;5042918;28;20188;-76
2023/10/30 00:35:15;;;;;;;0.90;0.50;;;;;;;12.95;100.00;99301.59;5033974;28;20203;-77
2023/10/30 00:37:41;;;;;;;0.50;0.30;;;;;;;12.95;100.00;99293.81;5043615;28;20272;-77
2023/10/30 00:40:07;;;;;;;0.73;0.50;;;;;;;12.95;100.00;99300.72;5046800;28;20238;-77
2023/10/30 00:42:32;;;;;;;0.50;0.40;;;;;;;12.95;100.00;99305.94;5044881;28;20192;-77
2023/10/30 00:44:57;;;;;;;1.13;0.37;;;;;;;12.93;100.00;99310.34;5043677;28;20624;-77
2023/10/30 00:47:23;;;;;;;0.67;0.47;;;;;;;12.92;100.00;99303.47;5044524;28;20225;-76
2023/10/30 00:49:48;;;;;;;0.60;0.60;;;;;;;12.90;100.00;99307.84;5047723;28;20214;-77
2023/10/30 00:52:13;;;;;;;0.40;0.40;;;;;;;12.87;100.00;99294.97;5044456;28;20276;-77
2023/10/30 00:54:39;;;;;;;1.07;0.60;;;;;;;12.86;100.00;99303.66;5046034;28;20185;-78
2023/10/30 00:57:04;;;;;;;1.20;0.50;;;;;;;12.84;100.00;99303.72;5047888;28;20193;-78
2023/10/30 00:59:29;;;;;;;1.03;0.50;;;;;;;12.83;100.00;99309.81;5040471;28;20225;-77
2023/10/30 01:01:55;;;;;;;0.67;0.53;;;;;;;12.84;100.00;99314.09;5045510;28;20198;-77
2023/10/30 01:04:20;;;;;;;0.60;0.50;;;;;;;12.85;100.00;99315.81;5034261;28;20249;-78
2023/10/30 01:06:46;;;;;;;0.90;0.40;;;;;;;12.86;100.00;99314.03;5044792;28;20327;-76
2023/10/30 01:09:11;;;;;;;0.50;0.33;;;;;;;12.88;100.00;99312.25;5042116;28;20239;-77
2023/10/30 01:11:37;;;;;;;0.50;0.40;;;;;;;12.89;100.00;99322.56;5041875;28;20211;-76
2023/10/30 01:14:03;;;;;;;1.10;0.60;;;;;;;12.90;100.00;99306.09;5044891;28;20184;-77
2023/10/30 01:16:28;;;;;;;0.43;0.33;;;;;;;12.91;100.00;99304.34;5042594;28;20253;-77
2023/10/30 01:18:53;;;;;;;0.80;0.37;;;;;;;12.93;100.00;99292.16;5045912;28;20225;-76
2023/10/30 01:21:20;;;;;;;0.97;0.50;;;;;;;12.93;100.00;99295.59;5043379;28;20197;-77
2023/10/30 01:23:45;;;;;;;0.50;0.47;;;;;;;12.94;100.00;99288.66;5043800;28;20184;-77
2023/10/30 01:26:11;;;;;;;0.57;0.50;;;;;;;12.95;100.00;99278.22;5036252;28;20201;-77
2023/10/30 01:28:36;;;;;;;1.63;0.80;;;;;;;12.96;100.00;99279.91;5036885;28;20215;-77
2023/10/30 01:31:04;;;;;;;0.70;0.50;;;;;;;12.96;100.00;99271.25;5044212;28;20236;-77
2023/10/30 01:33:30;;;;;;;0.57;0.47;;;;;;;12.94;100.00;99283.44;5041334;28;20230;-77
2023/10/30 01:35:55;;;;;;;1.40;0.40;;;;;;;12.93;100.00;99279.19;5042773;28;20221;-78
2023/10/30 01:38:21;;;;;;;0.70;0.47;;;;;;;12.93;100.00;99271.41;5043022;28;20197;-78
2023/10/30 01:40:50;;;;;;;5.57;0.90;;;;;;;12.90;100.00;99282.72;5048509;28;20361;-77
2023/10/30 01:43:16;;;;;;;1.10;0.50;;;;;;;12.90;100.00;99274.94;5043577;28;20288;-76
2023/10/30 01:45:41;;;;;;;0.60;0.40;;;;;;;12.89;100.00;99278.41;5043797;28;20297;-77
2023/10/30 01:48:06;;;;;;;0.67;0.37;;;;;;;12.88;100.00;99255.94;5047305;28;20216;-75
2023/10/30 01:50:32;;;;;;;0.50;0.37;;;;;;;12.86;100.00;99267.31;5040091;28;20276;-76
2023/10/30 01:52:58;;;;;;;0.57;0.50;;;;;;;12.85;100.00;99255.22;5045186;28;20197;-77
2023/10/30 01:55:23;;;;;;;0.90;0.50;;;;;;;12.83;100.00;99254.41;5043161;28;20184;-77
2023/10/30 01:57:49;;;;;;;1.30;0.40;;;;;;;12.80;100.00;99264.00;5047756;28;20185;-77
2023/10/30 02:00:15;;;;;;;0.80;0.53;;;;;;;12.80;100.00;99269.19;5037699;28;20221;-76
2023/10/30 02:02:42;;;;;;;0.97;0.40;;;;;;;12.80;100.00;99268.38;5038572;28;20199;-77
2023/10/30 02:05:10;;;;;;;0.53;0.40;;;;;;;12.79;100.00;99279.66;5038987;28;20183;-76
2023/10/30 02:07:37;;;;;;;1.00;0.60;;;;;;;12.76;100.00;99272.81;5047837;28;20202;-77
2023/10/30 02:10:04;;;;;;;0.80;0.40;;;;;;;12.74;100.00;99264.25;5039868;28;20257;-78
2023/10/30 02:12:30;;;;;;;1.53;0.60;;;;;;;12.72;100.00;99286.81;5047034;28;20185;-77
2023/10/30 02:14:55;;;;;;;2.37;0.70;;;;;;;12.66;100.00;99281.81;5053241;28;20299;-79
2023/10/30 02:17:21;;;;;;;1.00;0.63;;;;;;;12.63;100.00;99276.72;5050435;28;20256;-76
2023/10/30 02:19:46;;;;;;;2.23;0.73;;;;;;;12.59;100.00;99263.00;5044658;28;20210;-77
2023/10/30 02:22:11;;;;;;;1.23;0.50;;;;;;;12.57;100.00;99253.56;5045929;28;20189;-75
2023/10/30 02:24:37;;;;;;;1.47;0.50;;;;;;;12.54;100.00;99249.34;5042949;28;20197;-77
2023/10/30 02:27:03;;;;;;;2.30;0.60;;;;;;;12.54;100.00;99251.06;5052584;28;20231;-76
2023/10/30 02:29:28;;;;;;;0.83;0.70;;;;;;;12.53;100.00;99244.19;5044334;28;20304;-77
2023/10/30 02:31:54;;;;;;;2.40;1.10;;;;;;;12.50;100.00;99220.03;5044227;28;20198;-77
2023/10/30 02:34:19;;;;;;;1.50;0.83;;;;;;;12.48;100.00;99201.06;5039476;28;20182;-77
2023/10/30 02:36:44;;;;;;;1.97;0.73;;;;;;;12.50;100.00;99227.00;5044109;28;20181;-76
2023/10/30 02:39:10;;;;;;;1.07;0.60;;;;;;;12.49;100.00;99218.34;5044427;28;20899;-76
2023/10/30 02:41:35;;;;;;;0.83;0.50;;;;;;;12.48;100.00;99221.84;5044594;28;20408;-76
2023/10/30 02:44:01;;;;;;;1.83;0.70;;;;;;;12.50;100.00;99232.19;5041301;28;20188;-76
2023/10/30 02:46:27;;;;;;;1.87;0.90;;;;;;;12.49;100.00;99233.91;5044788;28;20286;-77
2023/10/30 02:48:52;;;;;;;1.23;0.87;;;;;;;12.49;100.00;99212.31;5043443;28;20273;-76
2023/10/30 02:51:18;;;;;;;1.80;0.60;;;;;;;12.47;100.00;99208.91;5044981;28;20186;-76
2023/10/30 02:53:43;;;;;;;1.13;0.70;;;;;;;12.46;100.00;99200.31;5042014;28;20676;-77
2023/10/30 02:56:09;;;;;;;0.67;0.40;;;;;;;12.44;100.00;99186.53;5041366;28;20183;-77
2023/10/30 02:58:34;;;;;;;1.00;0.63;;;;;;;12.44;100.00;99198.63;5040567;28;20184;-76
2023/10/30 03:01:01;;;;;;;1.70;0.67;;;;;;;12.39;100.00;99197.97;5052017;28;20344;-77
2023/10/30 03:03:26;;;;;;;1.87;0.60;;;;;;;12.36;100.00;99204.09;5045777;28;20184;-76
2023/10/30 03:05:52;;;;;;;2.67;0.67;;;;;;;12.34;100.00;99187.72;5041704;28;20206;-77
2023/10/30 03:08:17;;;;;;;1.83;0.83;;;;;;;12.32;100.00;99173.97;5044893;28;20202;-78
2023/10/30 03:10:43;;;;;;;1.47;0.53;;;;;;;12.31;100.00;99175.72;5041388;28;20206;-76
2023/10/30 03:13:09;;;;;;;1.33;0.70;;;;;;;12.29;100.00;99180.09;5044175;28;20236;-77
2023/10/30 03:15:34;;;;;;;1.23;0.53;;;;;;;12.27;100.00;99176.72;5044913;28;20189;-77
2023/10/30 03:18:01;;;;;;;1.47;0.53;;;;;;;12.27;100.00;99173.28;5041321;28;20191;-76
2023/10/30 03:20:26;;;;;;;1.60;0.60;;;;;;;12.26;100.00;99184.56;5042984;28;20217;-75
2023/10/30 03:22:52;;;;;;;1.17;0.50;;;;;;;12.26;100.00;99176.78;5044703;28;20187;-77
2023/10/30 03:25:17;;;;;;;2.43;0.70;;;;;;;12.26;100.00;99179.38;5042930;28;20186;-76
2023/10/30 03:27:42;;;;;;;0.80;0.70;;;;;;;12.27;100.00;99191.44;5042324;28;20663;-76
2023/10/30 03:30:08;;;;;;;1.83;0.70;;;;;;;12.26;100.00;99194.94;5044699;28;20281;-77
2023/10/30 03:32:33;;;;;;;1.70;0.83;;;;;;;12.26;100.00;99193.16;5043938;28;20198;-78
2023/10/30 03:34:59;;;;;;;2.13;0.53;;;;;;;12.26;100.00;99190.56;5041013;28;20570;-77
2023/10/30 03:37:25;;;;;;;1.17;0.40;;;;;;;12.24;100.00;99187.22;5037798;28;20178;-78
2023/10/30 03:39:50;;;;;;;1.13;0.47;;;;;;;12.24;100.00;99184.63;5038287;28;20219;-76
2023/10/30 03:42:15;;;;;;;0.73;0.57;;;;;;;12.26;100.00;99167.22;5031661;28;20196;-76
2023/10/30 03:44:41;;;;;;;1.20;0.53;;;;;;;12.27;100.00;99178.47;5040418;28;20276;-76
2023/10/30 03:47:06;;;;;;;1.57;0.60;;;;;;;12.28;100.00;99172.38;5055841;28;20205;-76
2023/10/30 03:49:31;;;;;;;0.60;0.43;;;;;;;12.30;100.00;99171.41;5052592;28;20204;-76
2023/10/30 03:51:56;;;;;;;1.70;0.50;;;;;;;12.32;100.00;99179.16;5033679;28;20184;-78
2023/10/30 03:54:22;;;;;;;0.80;0.50;;;;;;;12.33;100.00;99170.47;5042619;28;20194;-76
2023/10/30 03:56:48;;;;;;;0.97;0.60;;;;;;;12.34;100.00;99174.75;5047304;28;20212;-77
2023/10/30 03:59:15;;;;;;;0.60;0.47;;;;;;;12.33;100.00;99167.88;5044033;28;20203;-77
2023/10/30 04:01:40;;;;;;;1.80;0.40;;;;;;;12.33;100.00;99160.94;5041717;28;20188;-77
2023/10/30 04:04:06;;;;;;;1.50;0.50;;;;;;;12.32;100.00;99158.41;5039038;28;20210;-78
2023/10/30 04:06:32;;;;;;;1.70;0.47;;;;;;;12.31;100.00;99180.06;5044683;28;20198;-77
2023/10/30 04:08:57;;;;;;;1.20;0.60;;;;;;;12.30;100.00;99181.78;5045493;28;20235;-75
2023/10/30 04:11:22;;;;;;;1.47;0.50;;;;;;;12.30;100.00;99175.78;5058982;28;20194;-76
2023/10/30 04:13:48;;;;;;;1.50;0.60;;;;;;;12.27;100.00;99179.31;5054437;28;20193;-77
2023/10/30 04:16:15;;;;;;;2.23;0.73;;;;;;;12.26;100.00;99187.97;5046095;28;20219;-78
2023/10/30 04:18:41;;;;;;;1.10;0.60;;;;;;;12.23;100.00;99188.09;5045220;28;20186;-77
2023/10/30 04:21:06;;;;;;;1.63;0.60;;;;;;;12.24;100.00;99191.53;5044349;28;20206;-77
2023/10/30 04:23:32;;;;;;;1.50;0.60;;;;;;;12.23;100.00;99184.66;5045485;28;20186;-77
2023/10/30 04:25:57;;;;;;;0.87;0.43;;;;;;;12.22;100.00;99175.16;5044511;28;20213;-77
2023/10/30 04:28:23;;;;;;;0.60;0.30;;;;;;;12.20;100.00;99173.47;5048395;28;20215;-77
2023/10/30 04:30:48;;;;;;;1.43;0.40;;;;;;;12.21;100.00;99179.53;5047332;28;20310;-77
2023/10/30 04:33:14;;;;;;;1.40;0.43;;;;;;;12.23;100.00;99172.53;5044584;28;20433;-78
2023/10/30 04:35:39;;;;;;;1.30;0.30;;;;;;;12.24;100.00;99165.59;5046519;28;20744;-77
2023/10/30 04:38:04;;;;;;;0.70;0.50;;;;;;;12.26;100.00;99161.22;5041368;28;20186;-77
2023/10/30 04:40:30;;;;;;;1.20;0.60;;;;;;;12.28;100.00;99164.59;5040507;28;20208;-76
2023/10/30 04:42:55;;;;;;;1.00;0.30;;;;;;;12.28;100.00;99168.03;5043429;28;20269;-77
2023/10/30 04:45:20;;;;;;;2.10;0.77;;;;;;;12.28;100.00;99175.81;5043155;28;20196;-78
2023/10/30 04:47:46;;;;;;;2.30;1.13;;;;;;;12.27;100.00;99168.94;5046907;28;20394;-78
2023/10/30 04:50:11;;;;;;;1.83;0.70;;;;;;;12.27;100.00;99166.34;5043374;28;20202;-77
2023/10/30 04:52:37;;;;;;;1.53;0.70;;;;;;;12.28;100.00;99159.41;5044488;28;20193;-77
2023/10/30 04:55:02;;;;;;;0.80;0.60;;;;;;;12.28;100.00;99162.84;5040526;28;20183;-78
2023/10/30 04:57:27;;;;;;;0.60;0.40;;;;;;;12.28;100.00;99168.03;5043130;28;21126;-78
2023/10/30 04:59:53;;;;;;;1.40;0.60;;;;;;;12.30;100.00;99166.22;5046542;28;20206;-76
2023/10/30 05:02:18;;;;;;;1.63;0.60;;;;;;;12.31;100.00;99165.34;5047255;28;20669;-76
2023/10/30 05:04:43;;;;;;;1.00;0.40;;;;;;;12.30;100.00;99129.91;5050485;28;20194;-77
2023/10/30 05:07:09;;;;;;;0.67;0.40;;;;;;;12.31;100.00;99133.38;5043562;28;20342;-77
2023/10/30 05:09:36;;;;;;;1.00;0.50;;;;;;;12.32;100.00;99116.91;5045090;28;20797;-77
2023/10/30 05:12:01;;;;;;;0.80;0.53;;;;;;;12.33;100.00;99110.78;5045941;28;20312;-77
2023/10/30 05:14:26;;;;;;;0.70;0.60;;;;;;;12.32;100.00;99115.16;5043578;28;20290;-76
2023/10/30 05:16:52;;;;;;;0.50;0.40;;;;;;;12.32;100.00;99094.38;5045166;28;20252;-77
2023/10/30 05:19:18;;;;;;;0.70;0.50;;;;;;;12.33;100.00;99100.41;5047861;28;20203;-76
2023/10/30 05:21:43;;;;;;;1.13;0.60;;;;;;;12.33;100.00;99092.63;5046910;28;20191;-77
2023/10/30 05:24:08;;;;;;;0.57;0.53;;;;;;;12.33;100.00;99090.91;5038461;28;20199;-78
2023/10/30 05:26:33;;;;;;;1.70;0.40;;;;;;;12.33;100.00;99122.03;5047735;28;20225;-77
2023/10/30 05:28:59;;;;;;;0.80;0.50;;;;;;;12.34;100.00;99146.22;5040391;28;20198;-76
2023/10/30 05:31:24;;;;;;;0.90;0.60;;;;;;;12.34;100.00;99138.44;5045199;28;20190;-76
2023/10/30 05:33:50;;;;;;;0.97;0.43;;;;;;;12.33;100.00;99139.31;5045985;28;20590;-77
2023/10/30 05:36:15;;;;;;;0.60;0.50;;;;;;;12.34;100.00;99156.59;5042533;28;20187;-77
2023/10/30 05:38:40;;;;;;;0.90;0.50;;;;;;;12.37;100.00;99168.63;5043418;28;20184;-77
2023/10/30 05:41:06;;;;;;;0.90;0.57;;;;;;;12.37;100.00;99127.94;5043217;28;20910;-75
2023/10/30 05:43:31;;;;;;;1.20;0.60;;;;;;;12.35;100.00;99111.59;5040970;28;20563;-77
2023/10/30 05:45:56;;;;;;;1.07;0.50;;;;;;;12.37;100.00;99096.81;5043366;28;20547;-76
2023/10/30 05:48:22;;;;;;;0.97;0.77;;;;;;;12.37;100.00;99094.22;5044917;28;20370;-77
2023/10/30 05:50:47;;;;;;;0.77;0.70;;;;;;;12.38;100.00;99100.28;5044016;28;20234;-76
2023/10/30 05:53:12;;;;;;;2.13;0.90;;;;;;;12.38;100.00;99123.63;5044985;28;20184;-75
2023/10/30 05:55:38;;;;;;;2.53;0.80;;;;;;;12.39;100.00;99120.97;5048661;28;20184;-76
2023/10/30 05:58:03;;;;;;;1.40;0.80;;;;;;;12.37;100.00;99114.97;5043123;28;20221;-76
2023/10/30 06:00:29;;;;;;;2.20;0.90;;;;;;;12.35;100.00;99120.22;5044088;28;20230;-76
2023/10/30 06:02:55;;;;;;;0.90;0.70;;;;;;;12.34;100.00;99141.03;5043797;28;20708;-76
2023/10/30 06:05:21;;;;;;;1.20;0.80;;;;;;;12.33;100.00;99141.91;5052107;28;20198;-77
2023/10/30 06:07:47;;;;;;;0.80;0.73;;;;;;;12.35;100.00;99141.00;5052676;28;20277;-76
2023/10/30 06:10:13;;;;;;;1.13;0.77;;;;;;;12.36;100.00;99147.00;5042893;28;20195;-77
2023/10/30 06:12:39;;;;;;;0.83;0.70;;;;;;;12.37;100.00;99140.94;5042990;28;20558;-77
2023/10/30 06:15:06;;;;;;;1.27;0.70;;;;;;;12.38;100.00;99124.47;5040482;28;20182;-77
2023/10/30 06:17:31;;;;;;;1.20;0.70;;;;;;;12.40;100.00;99121.84;5041905;28;20310;-77
2023/10/30 06:19:56;;;;;;;0.90;0.53;;;;;;;12.39;100.00;99117.53;5043489;28;20584;-77
2023/10/30 06:22:22;;;;;;;0.67;0.40;;;;;;;12.39;100.00;99127.91;5044477;28;20238;-77
2023/10/30 06:24:47;;;;;;;1.20;0.70;;;;;;;12.41;100.00;99131.28;5043312;28;20194;-76
2023/10/30 06:27:13;;;;;;;1.07;0.60;;;;;;;12.42;100.00;99126.06;5040418;28;20199;-76
2023/10/30 06:29:38;;;;;;;0.60;0.60;;;;;;;12.44;100.00;99113.88;5044677;28;20310;-77
2023/10/30 06:32:03;;;;;;;1.90;1.10;;;;;;;12.46;100.00;99103.44;5042955;28;20660;-77
2023/10/30 06:34:29;;;;;;;1.30;1.10;;;;;;;12.47;100.00;99106.00;5039016;28;20296;-78
2023/10/30 06:36:54;;;;;;;1.03;0.80;;;;;;;12.53;100.00;99099.72;5041197;28;20177;-76
2023/10/30 06:39:20;;;;;;;2.03;1.37;;;;;;;12.60;100.00;99082.19;5041580;28;20258;-77
2023/10/30 06:41:45;;;;;;;1.83;1.73;;;;;;;12.63;100.00;99084.63;5045322;28;20635;-76
2023/10/30 06:44:10;;;;;;;2.00;1.27;;;;;;;12.63;100.00;99088.09;5041878;28;20197;-77
2023/10/30 06:46:36;;;;;;;1.70;1.33;;;;;;;12.67;100.00;99108.75;5045338;28;20182;-77
2023/10/30 06:49:01;;;;;;;1.50;1.07;;;;;;;12.73;100.00;99098.13;5035292;28;20197;-77
2023/10/30 06:51:27;;;;;;;1.37;1.10;;;;;;;12.76;100.00;99114.47;5039072;28;20836;-78
2023/10/30 06:53:52;;;;;;;1.10;0.90;;;;;;;12.86;100.00;99114.94;5037222;28;20184;-77
2023/10/30 06:56:17;;;;;;;0.93;0.77;;;;;;;12.98;100.00;99124.03;5041008;28;20189;-76
2023/10/30 06:58:43;;;;;;;1.67;0.90;;;;;;;13.05;100.00;99122.91;5039731;28;20193;-76
2023/10/30 07:01:08;;;;;;;0.90;0.70;;;;;;;12.98;100.00;99121.44;5041713;28;20202;-76
2023/10/30 07:03:34;;;;;;;3.10;0.70;;;;;;;13.03;100.00;99119.53;5040433;28;20568;-76
2023/10/30 07:06:00;;;;;;;1.33;0.57;;;;;;;13.06;100.00;99118.56;5034013;28;20197;-77
2023/10/30 07:08:25;;;;;;;1.10;0.80;;;;;;;13.15;100.00;99125.16;5042621;28;20717;-78
2023/10/30 07:10:51;;;;;;;2.47;0.70;;;;;;;13.30;100.00;99121.13;5043431;28;20206;-76
2023/10/30 07:13:17;;;;;;;0.90;0.50;;;;;;;13.38;100.00;99114.72;5042583;28;20192;-77
2023/10/30 07:15:42;;;;;;;1.73;0.73;;;;;;;13.57;100.00;99114.00;5038309;28;20180;-76
2023/10/30 07:18:08;;;;;;;1.37;0.50;;;;;;;13.55;100.00;99100.22;5041891;28;20205;-77
2023/10/30 07:20:33;;;;;;;1.07;0.50;;;;;;;13.58;100.00;99094.91;5044431;28;20222;-77
2023/10/30 07:22:58;;;;;;;0.90;0.50;;;;;;;13.57;100.00;99094.06;5038812;28;20281;-77
2023/10/30 07:25:24;;;;;;;2.00;0.60;;;;;;;13.61;100.00;99083.56;5042395;28;20191;-76
2023/10/30 07:27:49;;;;;;;2.20;0.70;;;;;;;13.64;100.00;99084.25;5039927;28;20690;-76
2023/10/30 07:30:15;;;;;;;1.37;0.60;;;;;;;13.72;100.00;99087.38;5042948;28;20303;-77
2023/10/30 07:32:40;;;;;;;0.83;0.50;;;;;;;13.90;100.00;99084.09;5041245;28;20187;-76
2023/10/30 07:35:06;;;;;;;0.40;0.40;;;;;;;14.10;100.00;99093.66;5043442;28;20195;-77
2023/10/30 07:37:34;;;;;;;1.00;0.67;;;;;;;14.28;100.00;99084.19;5042143;28;20210;-77
2023/10/30 07:39:59;;;;;;;0.80;0.60;;;;;;;14.44;100.00;99092.19;5044996;28;20217;-77
2023/10/30 07:42:24;;;;;;;0.60;0.40;;;;;;;14.62;100.00;99093.13;5048563;28;20189;-77
2023/10/30 07:44:50;;;;;;;0.90;0.50;;;;;;;14.60;100.00;99098.38;5046422;28;20631;-78
2023/10/30 07:47:15;;;;;;;0.80;0.50;;;;;;;14.72;100.00;99098.81;5045840;28;20819;-77
2023/10/30 07:49:40;;;;;;;0.60;0.50;;;;;;;14.69;100.00;99096.31;5046697;28;20218;-76
2023/10/30 07:52:06;;;;;;;0.80;0.50;;;;;;;14.84;100.00;99098.22;5042901;28;20190;-77
2023/10/30 07:54:31;;;;;;;1.13;0.77;;;;;;;15.07;100.00;99096.31;5043870;28;20697;-77
2023/10/30 07:56:57;;;;;;;0.70;0.57;;;;;;;15.13;100.00;99119.50;5043998;28;20189;-76
2023/10/30 07:59:22;;;;;;;1.07;0.70;;;;;;;15.32;100.00;99123.84;5042899;28;20199;-77
2023/10/30 08:01:50;;;;;;;0.77;0.57;;;;;;;15.47;100.00;99123.13;5049065;28;20715;-76
2023/10/30 08:04:15;;;;;;;1.27;0.60;;;;;;;15.57;100.00;99128.75;5050386;28;20197;-78
2023/10/30 08:06:40;;;;;;;0.40;0.40;;;;;;;15.72;100.00;99121.09;5042736;28;20201;-75
2023/10/30 08:09:08;;;;;;;0.40;0.40;;;;;;;15.73;100.00;99114.94;5045578;28;20931;-76
2023/10/30 08:11:37;;;;;;;1.07;0.80;;;;;;;15.72;100.00;99106.25;5046964;28;20261;-77
2023/10/30 08:14:02;;;;;;;1.23;0.70;;;;;;;15.72;100.00;99105.44;5041798;28;20249;-76
2023/10/30 08:16:27;;;;;;;1.13;0.70;;;;;;;15.29;100.00;99101.34;5045192;28;20427;-75
2023/10/30 08:18:52;;;;;;;0.60;0.40;;;;;;;15.38;100.00;99093.13;5040412;28;20268;-76
2023/10/30 08:21:18;;;;;;;0.83;0.80;;;;;;;15.49;100.00;99091.75;5040419;28;20200;-76
2023/10/30 08:23:43;;;;;;;1.83;0.77;;;;;;;15.52;100.00;99089.00;5046345;28;20182;-76
2023/10/30 08:26:09;;;;;;;1.23;0.60;;;;;;;15.28;100.00;99091.84;5046331;28;20183;-77
2023/10/30 08:28:35;;;;;;;0.73;0.60;;;;;;;15.07;100.00;99076.34;5039954;28;20714;-77
2023/10/30 08:31:01;;;;;;;1.20;0.60;;;;;;;15.14;100.00;99063.84;5043329;28;20229;-77
2023/10/30 08:33:26;;;;;;;2.43;0.60;;;;;;;15.17;100.00;99073.28;5041901;28;20240;-77
2023/10/30 08:35:52;;;;;;;0.97;0.80;;;;;;;15.15;100.00;99072.50;5042787;28;20202;-77
2023/10/30 08:38:18;;;;;;;1.00;0.80;;;;;;;15.10;100.00;99067.50;5040920;28;20664;-76
2023/10/30 08:40:43;;;;;;;0.97;0.87;;;;;;;15.06;100.00;99073.78;5041376;28;20229;-77
2023/10/30 08:43:08;;;;;;;1.70;0.90;;;;;;;15.17;100.00;99070.66;5036231;28;20183;-76
2023/10/30 08:45:33;;;;;;;1.37;0.80;;;;;;;15.19;100.00;99069.69;5044293;28;20670;-76
2023/10/30 08:47:59;;;;;;;1.00;0.60;;;;;;;15.17;100.00;99068.06;5039292;28;20315;-77
2023/10/30 08:50:24;;;;;;;0.60;0.50;;;;;;;15.25;100.00;99063.34;5037781;28;20207;-77
2023/10/30 08:52:49;;;;;;;2.03;0.77;;;;;;;15.22;100.00;99066.09;5037407;28;20686;-76
2023/10/30 08:55:15;;;;;;;1.90;0.70;;;;;;;15.24;100.00;99070.31;5041144;28;20333;-77
2023/10/30 08:57:40;;;;;;;2.53;0.83;;;;;;;15.28;100.00;99060.56;5040377;28;20272;-77
2023/10/30 09:00:07;;;;;;;1.10;0.70;;;;;;;15.34;100.00;99067.28;5042507;28;20205;-78
2023/10/30 09:02:33;;;;;;;1.23;0.80;;;;;;;15.46;100.00;99063.22;5044480;28;20187;-77
2023/10/30 09:04:58;;;;;;;0.70;0.70;;;;;;;15.38;100.00;99061.84;5043186;28;20186;-76
2023/10/30 09:07:24;;;;;;;1.17;1.07;;;;;;;15.29;100.00;99058.81;5041174;28;20575;-76
2023/10/30 09:09:50;;;;;;;1.93;0.90;;;;;;;15.18;100.00;99061.94;5043690;28;20230;-77
2023/10/30 09:12:16;;;;;;;0.80;0.80;;;;;;;15.11;100.00;99056.19;5044644;28;20387;-76
2023/10/30 09:14:41;;;;;;;1.50;0.80;;;;;;;15.13;100.00;99050.88;5041078;28;20191;-77
2023/10/30 09:17:08;;;;;;;1.77;0.70;;;;;;;15.06;100.00;99048.59;5043912;28;20189;-77
2023/10/30 09:19:35;;;;;;;1.53;0.90;;;;;;;15.03;100.00;99040.06;5045187;28;20264;-76
2023/10/30 09:22:00;;;;;;;0.77;0.77;;;;;;;15.16;100.00;99037.72;5037781;28;20440;-77
2023/10/30 09:24:26;;;;;;;1.63;0.90;;;;;;;15.22;100.00;99035.66;5043461;28;20193;-78
2023/10/30 09:26:52;;;;;;;1.33;1.10;;;;;;;15.33;100.00;99036.91;5041634;28;20193;-77
2023/10/30 09:29:17;;;;;;;4.30;1.00;;;;;;;15.40;100.00;99030.47;5042493;28;20713;-77
2023/10/30 09:31:44;;;;;;;1.10;0.70;;;;;;;15.44;100.00;99028.53;5042712;28;20187;-77
2023/10/30 09:34:10;;;;;;;1.00;0.90;;;;;;;15.68;100.00;99018.66;5045750;28;20186;-78
2023/10/30 09:36:35;;;;;;;1.67;1.00;;;;;;;15.85;100.00;99020.47;5045966;28;20247;-77
2023/10/30 09:39:00;;;;;;;1.10;0.90;;;;;;;16.08;100.00;99002.75;5042810;28;20192;-77
2023/10/30 09:41:27;;;;;;;1.87;0.80;;;;;;;16.17;100.00;99007.50;5045770;28;20186;-76
2023/10/30 09:43:53;;;;;;;2.80;0.83;;;;;;;16.06;100.00;99002.84;5044669;28;20845;-77
2023/10/30 09:46:25;;;;;;;0.80;0.80;;;;;;;16.34;100.00;98992.69;5045685;28;20279;-78
2023/10/30 09:48:52;;;;;;;1.07;0.90;;;;;;;16.67;100.00;99000.47;5040910;28;20211;-78
2023/10/30 09:51:19;;;;;;;0.70;0.60;;;;;;;16.98;100.00;98988.34;5045409;28;20196;-77
2023/10/30 09:53:46;;;;;;;1.23;1.07;;;;;;;16.95;100.00;98996.38;5043692;28;20777;-78
2023/10/30 09:56:13;;;;;;;1.23;0.70;;;;;;;16.62;100.00;99002.50;5043198;28;20191;-77
2023/10/30 09:58:38;;;;;;;0.80;0.70;;;;;;;16.66;100.00;98992.72;5049532;28;20186;-77
2023/10/30 10:01:04;;;;;;;0.77;0.70;;;;;;;16.77;100.00;98991.19;5065595;28;20220;-78
2023/10/30 10:03:30;;;;;;;1.07;0.97;;;;;;;17.08;100.00;98990.44;5046276;28;20698;-78
2023/10/30 10:05:56;;;;;;;1.53;0.90;;;;;;;17.03;100.00;98975.84;5035410;28;20222;-77
2023/10/30 10:08:22;;;;;;;1.30;1.00;;;;;;;16.83;100.00;98973.50;5037722;28;20295;-77
2023/10/30 10:11:01;;;;;;;23.57;4.33;;;;;;;16.83;100.00;98970.91;5043064;28;20244;-75
2023/10/30 10:13:29;;;;;;;2.87;1.40;;;;;;;17.06;100.00;98964.41;5042648;28;20231;-78
2023/10/30 10:15:55;;;;;;;1.87;1.23;;;;;;;17.19;100.00;98951.44;5043178;28;20934;-77
2023/10/30 10:18:32;;;;;;;1.13;1.00;;;;;;;17.46;100.00;98941.16;5041476;28;20185;-77
2023/10/30 10:21:01;;;;;;;2.80;1.30;;;;;;;17.37;100.00;98949.56;5040286;28;20301;-78
2023/10/30 10:23:32;;;;;;;3.60;1.20;;;;;;;17.19;100.00;98936.63;5043294;28;20664;-77
2023/10/30 10:26:04;;;;;;;1.70;1.20;;;;;;;17.22;100.00;98935.59;5039582;28;20186;-77
2023/10/30 10:28:30;;;;;;;1.40;1.10;;;;;;;17.10;100.00;98928.47;5042554;28;20205;-77
2023/10/30 10:30:56;;;;;;;1.73;1.00;;;;;;;16.91;100.00;98929.47;5045409;28;20221;-77
2023/10/30 10:33:28;;;;;;;2.13;1.10;;;;;;;17.02;100.00;98908.81;5044177;28;20192;-77
2023/10/30 10:35:54;;;;;;;1.13;0.93;;;;;;;17.10;100.00;98913.63;5044146;28;20725;-77
2023/10/30 10:38:21;;;;;;;1.87;1.03;;;;;;;17.05;100.00;98907.84;5045202;28;20186;-78
2023/10/30 10:40:47;;;;;;;1.80;0.90;;;;;;;17.12;100.00;98908.31;5042277;28;20292;-75
2023/10/30 10:43:20;;;;;;;1.53;1.10;;;;;;;17.15;100.00;98908.13;5044613;28;20288;-76
2023/10/30 10:45:47;;;;;;;4.57;1.50;;;;;;;17.23;100.00;98892.84;5040197;28;20188;-78
2023/10/30 10:48:13;;;;;;;2.47;1.63;;;;;;;17.29;100.00;98886.41;5044299;28;20216;-76
2023/10/30 10:50:41;;;;;;;3.60;2.40;;;;;;;17.20;100.00;98880.78;5044377;28;20200;-76
2023/10/30 10:53:07;;;;;;;2.33;1.57;;;;;;;17.04;100.00;98885.25;5041909;28;21690;-76
2023/10/30 10:55:49;;;;;;;3.07;2.47;;;;;;;17.03;100.00;98878.31;5041167;28;20193;-76
2023/10/30 10:58:26;;;;;;;1.30;1.20;;;;;;;17.07;100.00;98864.16;5049819;28;20238;-76
2023/10/30 11:00:52;;;;;;;1.20;1.10;;;;;;;17.08;100.00;98858.00;5051759;28;20215;-76
2023/10/30 11:03:21;;;;;;;1.60;1.10;;;;;;;17.09;100.00;98858.81;5041607;28;20210;-77
2023/10/30 11:05:49;;;;;;;1.60;1.10;;;;;;;17.13;100.00;98865.56;5041903;28;20190;-76
2023/10/30 11:08:30;;;;;;;1.73;1.23;;;;;;;17.19;100.00;98859.94;5043000;28;20214;-77
2023/10/30 11:11:10;;;;;;;2.50;1.40;;;;;;;17.18;100.00;98853.03;5039432;28;20209;-76
2023/10/30 11:14:14;;;;;;;2.93;1.90;;;;;;;17.02;100.00;98848.72;5041519;28;20626;-76
2023/10/30 11:17:00;;;;;;;1.70;1.60;;;;;;;17.12;100.00;98846.41;5059460;28;20206;-75
2023/10/30 11:19:28;;;;;;;2.90;2.07;;;;;;;16.92;100.00;98837.09;5052035;28;20261;-77